createdAt,value
2022-12-03T00:02:18.958Z,9.82
2022-12-03T00:04:45.718Z,8.73
2022-12-03T00:07:12.090Z,8.38
2022-12-03T00:09:38.439Z,9.83
2022-12-03T00:12:19.812Z,8.98
2022-12-03T00:17:32.709Z,8.13
2022-12-03T00:20:22.796Z,10.23
2022-12-03T00:23:04.104Z,9.03
2022-12-03T00:28:11.194Z,9.10
2022-12-03T00:30:44.379Z,8.52
2022-12-03T00:33:10.800Z,10.32
2022-12-03T00:35:40.609Z,9.63
2022-12-03T00:38:09.955Z,9.02
2022-12-03T00:40:58.846Z,9.27
2022-12-03T00:43:23.513Z,9.40
2022-12-03T00:46:36.949Z,9.35
2022-12-03T00:49:09.065Z,9.87
2022-12-03T00:51:35.852Z,9.63
2022-12-03T00:55:01.573Z,10.07
2022-12-03T00:57:31.395Z,8.70
2022-12-03T01:00:30.768Z,9.35
2022-12-03T01:02:57.418Z,9.77
2022-12-03T01:05:23.750Z,9.00
2022-12-03T01:07:50.179Z,8.88
2022-12-03T01:11:00.378Z,9.68
2022-12-03T01:13:29.720Z,8.95
2022-12-03T01:19:36.602Z,9.68
2022-12-03T01:23:03.836Z,11.07
2022-12-03T01:25:37.901Z,8.30
2022-12-03T01:28:41.674Z,9.18
2022-12-03T01:34:20.637Z,9.73
2022-12-03T01:37:40.134Z,9.98
2022-12-03T01:44:26.283Z,9.85
2022-12-03T01:49:46.826Z,10.10
2022-12-03T01:52:16.651Z,9.43
2022-12-03T01:54:51.910Z,9.63
2022-12-03T02:07:23.131Z,8.77
2022-12-03T02:16:24.121Z,9.43
2022-12-03T02:30:05.128Z,9.57
2022-12-03T02:36:19.028Z,8.73
2022-12-03T02:47:35.577Z,8.63
2022-12-03T02:50:02.535Z,8.70
2022-12-03T02:52:29.251Z,10.00
2022-12-03T02:58:46.931Z,9.52
2022-12-03T03:01:22.832Z,9.63
2022-12-03T03:03:51.855Z,8.90
2022-12-03T03:06:19.914Z,10.02
2022-12-03T03:08:47.778Z,9.35
2022-12-03T03:15:01.835Z,9.13
2022-12-03T03:21:18.088Z,9.05
2022-12-03T03:24:02.826Z,10.55
2022-12-03T03:26:31.718Z,9.50
2022-12-03T03:29:02.656Z,10.02
2022-12-03T03:31:29.126Z,9.57
2022-12-03T03:37:42.974Z,9.88
2022-12-03T03:40:32.422Z,7.90
2022-12-03T03:46:54.995Z,9.70
2022-12-03T03:53:51.664Z,9.70
2022-12-03T03:56:21.956Z,9.88
2022-12-03T03:58:49.184Z,10.40
2022-12-03T04:01:25.315Z,10.07
2022-12-03T04:03:54.184Z,10.15
2022-12-03T04:06:23.288Z,9.88
2022-12-03T04:09:19.857Z,10.43
2022-12-03T04:12:07.651Z,11.25
2022-12-03T04:14:34.004Z,10.90
2022-12-03T04:17:04.130Z,11.05
2022-12-03T04:23:13.774Z,9.57
2022-12-03T04:29:32.080Z,9.23
2022-12-03T04:32:19.326Z,10.73
2022-12-03T04:37:57.538Z,10.98
2022-12-03T04:48:10.499Z,10.13
2022-12-03T04:54:34.542Z,9.98
2022-12-03T05:00:50.143Z,10.00
2022-12-03T05:07:00.327Z,10.15
2022-12-03T05:09:29.738Z,10.10
2022-12-03T05:11:56.159Z,12.07
2022-12-03T05:14:22.627Z,11.70
2022-12-03T05:16:49.275Z,10.63
2022-12-03T05:19:48.742Z,10.45
2022-12-03T05:22:30.310Z,11.25
2022-12-03T05:25:03.890Z,12.43
2022-12-03T05:27:30.284Z,10.67
2022-12-03T05:29:56.692Z,12.23
2022-12-03T05:32:24.040Z,12.13
2022-12-03T05:34:53.224Z,13.45
2022-12-03T05:37:19.732Z,13.40
2022-12-03T05:39:52.241Z,11.83
2022-12-03T05:42:38.451Z,12.88
2022-12-03T05:45:05.368Z,13.52
2022-12-03T05:47:34.742Z,11.88
2022-12-03T05:50:04.263Z,11.43
2022-12-03T05:52:38.099Z,13.30
2022-12-03T05:55:06.907Z,12.10
2022-12-03T05:57:40.868Z,14.30
2022-12-03T06:00:17.017Z,11.85
2022-12-03T06:02:44.450Z,12.25
2022-12-03T06:05:12.792Z,12.33
2022-12-03T06:07:42.361Z,12.45
2022-12-03T06:10:14.694Z,12.25
2022-12-03T06:12:48.774Z,12.38
2022-12-03T06:15:19.082Z,11.65
2022-12-03T06:17:48.039Z,11.97
2022-12-03T06:20:19.059Z,11.88
2022-12-03T06:22:45.886Z,12.00
2022-12-03T06:25:20.637Z,13.07
2022-12-03T06:27:46.976Z,12.52
2022-12-03T06:30:19.493Z,11.30
2022-12-03T06:32:45.859Z,12.32
2022-12-03T06:35:12.574Z,12.50
2022-12-03T06:37:43.132Z,12.02
2022-12-03T06:40:10.159Z,11.38
2022-12-03T06:42:36.481Z,11.17
2022-12-03T06:45:15.927Z,12.55
2022-12-03T06:47:44.319Z,11.52
2022-12-03T06:50:11.074Z,11.63
2022-12-03T06:52:37.425Z,13.85
2022-12-03T06:55:04.050Z,11.40
2022-12-03T06:57:33.684Z,11.32
2022-12-03T07:00:04.930Z,11.95
2022-12-03T07:02:37.335Z,11.65
2022-12-03T07:05:05.369Z,11.95
2022-12-03T07:07:32.218Z,11.23
2022-12-03T07:10:01.764Z,11.48
2022-12-03T07:12:28.135Z,12.00
2022-12-03T07:14:54.645Z,11.15
2022-12-03T07:17:23.821Z,11.25
2022-12-03T07:20:15.148Z,12.55
2022-12-03T07:22:49.131Z,11.85
2022-12-03T07:25:21.294Z,12.02
2022-12-03T07:27:50.051Z,11.40
2022-12-03T07:30:19.502Z,12.45
2022-12-03T07:32:45.842Z,11.52
2022-12-03T07:35:24.539Z,11.68
2022-12-03T07:37:51.387Z,12.35
2022-12-03T07:40:18.067Z,11.50
2022-12-03T07:42:47.259Z,11.35
2022-12-03T07:45:21.127Z,12.93
2022-12-03T07:47:48.690Z,11.55
2022-12-03T07:50:15.174Z,12.02
2022-12-03T07:52:46.198Z,11.37
2022-12-03T07:55:13.667Z,12.23
2022-12-03T07:57:40.155Z,12.55
2022-12-03T08:00:13.698Z,12.05
2022-12-03T08:02:40.433Z,11.32
2022-12-03T08:05:12.722Z,11.53
2022-12-03T08:07:39.166Z,11.70
2022-12-03T08:10:09.285Z,12.57
2022-12-03T08:12:42.532Z,12.98
2022-12-03T08:15:13.863Z,12.90
2022-12-03T08:17:45.693Z,12.83
2022-12-03T08:20:29.327Z,12.20
2022-12-03T08:22:57.577Z,12.20
2022-12-03T08:25:31.632Z,13.38
2022-12-03T08:28:33.680Z,12.35
2022-12-03T08:31:32.638Z,12.20
2022-12-03T08:34:15.516Z,11.73
2022-12-03T08:36:46.196Z,12.55
2022-12-03T08:45:41.325Z,13.40
2022-12-03T08:48:44.006Z,13.00
2022-12-03T08:51:25.233Z,11.88
2022-12-03T08:54:03.598Z,13.30
2022-12-03T08:56:35.024Z,12.40
2022-12-03T08:59:30.716Z,12.97
2022-12-03T09:02:01.359Z,11.50
2022-12-03T09:04:36.856Z,12.10
2022-12-03T09:07:14.826Z,13.88
2022-12-03T09:09:46.809Z,14.38
2022-12-03T09:12:16.170Z,13.80
2022-12-03T09:14:42.491Z,12.75
2022-12-03T09:17:12.235Z,11.60
2022-12-03T09:20:07.067Z,12.45
2022-12-03T09:22:34.397Z,12.73
2022-12-03T09:25:03.895Z,11.53
2022-12-03T09:27:41.757Z,13.75
2022-12-03T09:30:08.695Z,11.98
2022-12-03T09:32:35.543Z,11.52
2022-12-03T09:35:01.941Z,13.27
2022-12-03T09:37:28.306Z,12.47
2022-12-03T09:39:54.632Z,12.70
2022-12-03T09:42:26.819Z,11.02
2022-12-03T09:44:54.395Z,12.60
2022-12-03T09:47:23.834Z,11.25
2022-12-03T09:49:50.394Z,9.97
2022-12-03T09:52:25.096Z,11.02
2022-12-03T09:54:54.103Z,10.40
2022-12-03T09:57:22.941Z,11.18
2022-12-03T09:59:56.265Z,10.35
2022-12-03T10:02:27.433Z,9.60
2022-12-03T10:05:02.256Z,9.38
2022-12-03T10:07:28.743Z,9.10
2022-12-03T10:15:23.814Z,11.00
2022-12-03T10:17:53.207Z,10.05
2022-12-03T10:20:27.635Z,10.60
2022-12-03T10:22:54.729Z,11.25
2022-12-03T10:25:47.990Z,9.82
2022-12-03T10:28:31.127Z,9.30
2022-12-03T10:30:59.127Z,11.18
2022-12-03T10:33:59.286Z,10.02
2022-12-03T10:36:26.523Z,10.35
2022-12-03T10:39:37.522Z,10.70
2022-12-03T10:42:18.816Z,11.13
2022-12-03T10:44:46.410Z,11.35
2022-12-03T10:47:17.710Z,11.13
2022-12-03T10:49:51.878Z,11.90
2022-12-03T10:52:30.882Z,11.23
2022-12-03T10:54:57.651Z,11.33
2022-12-03T10:57:25.147Z,10.40
2022-12-03T10:59:54.707Z,11.10
2022-12-03T11:02:30.135Z,12.07
2022-12-03T11:04:58.163Z,11.00
2022-12-03T11:07:33.920Z,11.90
2022-12-03T11:10:01.702Z,10.95
2022-12-03T11:12:36.889Z,10.50
2022-12-03T11:15:11.464Z,11.65
2022-12-03T11:17:43.796Z,11.15
2022-12-03T11:20:38.607Z,11.73
2022-12-03T11:23:10.506Z,9.40
2022-12-03T11:25:50.417Z,9.15
2022-12-03T11:28:24.237Z,8.43
2022-12-03T11:30:53.698Z,9.93
2022-12-03T11:33:27.232Z,10.50
2022-12-03T11:36:09.784Z,8.93
2022-12-03T11:38:53.337Z,9.65
2022-12-03T11:42:03.549Z,9.38
2022-12-03T11:44:38.762Z,7.78
2022-12-03T11:47:15.415Z,8.23
2022-12-03T11:49:47.661Z,6.70
2022-12-03T11:52:25.411Z,7.63
2022-12-03T11:55:19.460Z,7.47
2022-12-03T11:57:46.086Z,6.82
2022-12-03T12:00:30.629Z,8.00
2022-12-03T12:03:04.024Z,7.63
2022-12-03T12:05:33.619Z,6.18
2022-12-03T12:08:02.520Z,7.25
2022-12-03T12:10:48.900Z,8.45
2022-12-03T12:14:03.962Z,6.93
2022-12-03T12:16:58.354Z,7.38
2022-12-03T12:19:42.089Z,6.85
2022-12-03T12:22:31.669Z,9.25
2022-12-03T12:25:02.972Z,8.55
2022-12-03T12:27:46.202Z,8.10
2022-12-03T12:30:24.970Z,8.43
2022-12-03T12:33:26.588Z,9.10
2022-12-03T12:35:53.715Z,8.88
2022-12-03T12:38:24.441Z,9.20
2022-12-03T12:40:50.976Z,7.87
2022-12-03T12:43:33.063Z,8.88
2022-12-03T12:49:58.231Z,8.60
2022-12-03T12:52:32.533Z,7.35
2022-12-03T12:55:04.336Z,8.40
2022-12-03T12:57:34.572Z,7.95
2022-12-03T13:00:01.011Z,10.18
2022-12-03T13:17:37.410Z,8.95
2022-12-03T13:23:37.671Z,10.77
2022-12-03T13:26:39.286Z,9.53
2022-12-03T13:29:23.868Z,14.70
2022-12-03T13:31:54.152Z,20.40
2022-12-03T13:38:17.056Z,12.95
2022-12-03T13:40:43.745Z,14.67
2022-12-03T13:43:20.261Z,12.90
2022-12-03T13:45:49.193Z,12.13
2022-12-03T13:55:32.207Z,13.57
2022-12-03T14:02:38.029Z,16.35
2022-12-03T14:05:07.530Z,11.43
2022-12-03T14:07:58.889Z,15.95
2022-12-03T14:10:25.298Z,13.90
2022-12-03T14:13:43.958Z,12.95
2022-12-03T14:16:14.056Z,13.63
2022-12-03T14:18:44.953Z,12.57
2022-12-03T14:21:11.312Z,10.98
2022-12-03T14:23:41.451Z,12.17
2022-12-03T14:26:10.555Z,12.10
2022-12-03T14:31:25.971Z,12.00
2022-12-03T14:33:53.732Z,11.77
2022-12-03T14:36:20.132Z,10.17
2022-12-03T14:38:56.096Z,10.32
2022-12-03T14:44:38.994Z,9.70
2022-12-03T14:47:05.578Z,10.40
2022-12-03T14:49:35.199Z,12.70
2022-12-03T14:52:08.484Z,11.98
2022-12-03T14:54:44.587Z,17.42
2022-12-03T14:57:16.348Z,21.25
2022-12-03T14:59:47.458Z,17.20
2022-12-03T15:02:13.998Z,13.47
2022-12-03T15:04:43.889Z,11.73
2022-12-03T15:07:10.465Z,12.55
2022-12-03T15:09:36.981Z,10.35
2022-12-03T15:15:55.683Z,11.20
2022-12-03T15:22:31.809Z,9.65
2022-12-03T15:25:02.504Z,10.80
2022-12-03T15:27:34.501Z,9.98
2022-12-03T15:38:11.624Z,11.68
2022-12-03T15:41:30.812Z,11.50
2022-12-03T15:44:03.570Z,13.50
2022-12-03T15:46:33.458Z,13.23
2022-12-03T15:49:07.371Z,13.82
2022-12-03T15:51:40.045Z,13.82
2022-12-03T15:54:14.382Z,15.00
2022-12-03T15:56:41.071Z,13.07
2022-12-03T16:02:55.626Z,15.02
2022-12-03T16:05:43.843Z,12.35
2022-12-03T16:08:17.876Z,15.57
2022-12-03T16:10:44.853Z,14.20
2022-12-03T16:13:11.297Z,14.60
2022-12-03T16:19:24.711Z,14.73
2022-12-03T16:22:24.864Z,14.15
2022-12-03T16:24:54.267Z,14.35
2022-12-03T16:27:25.796Z,15.97
2022-12-03T16:29:57.302Z,15.23
2022-12-03T16:32:29.090Z,15.18
2022-12-03T16:35:32.229Z,15.00
2022-12-03T16:41:42.487Z,13.70
2022-12-03T16:48:18.792Z,14.10
2022-12-03T16:50:48.397Z,14.02
2022-12-03T16:53:22.341Z,14.15
2022-12-03T16:59:35.792Z,13.48
2022-12-03T17:05:49.985Z,14.65
2022-12-03T17:08:57.661Z,14.10
2022-12-03T17:11:24.032Z,13.47
2022-12-03T17:14:21.763Z,15.68
2022-12-03T17:16:51.354Z,14.50
2022-12-03T17:23:05.880Z,14.60
2022-12-03T17:29:43.334Z,13.05
2022-12-03T17:33:08.967Z,15.15
2022-12-03T17:35:35.475Z,14.38
2022-12-03T17:44:24.866Z,14.80
2022-12-03T17:50:39.784Z,13.32
2022-12-03T17:53:43.530Z,14.00
2022-12-03T17:56:13.612Z,14.27
2022-12-03T17:58:42.877Z,14.18
2022-12-03T18:01:49.178Z,14.95
2022-12-03T18:04:26.950Z,14.00
2022-12-03T18:06:58.901Z,14.32
2022-12-03T18:09:30.216Z,16.50
2022-12-03T18:11:56.609Z,14.68
2022-12-03T18:14:36.720Z,14.90
2022-12-03T18:17:05.778Z,15.30
2022-12-03T18:19:34.502Z,14.98
2022-12-03T18:22:00.853Z,14.53
2022-12-03T18:24:39.748Z,14.95
2022-12-03T18:27:06.205Z,14.13
2022-12-03T18:29:33.428Z,14.43
2022-12-03T18:32:03.847Z,15.02
2022-12-03T18:34:30.170Z,14.50
2022-12-03T18:36:59.599Z,15.45
2022-12-03T18:39:39.730Z,17.55
2022-12-03T18:42:22.286Z,16.38
2022-12-03T18:48:35.648Z,15.57
2022-12-03T18:51:31.748Z,14.10
2022-12-03T18:53:58.129Z,12.15
2022-12-03T18:56:37.749Z,15.05
2022-12-03T18:59:06.555Z,13.63
2022-12-03T19:01:34.405Z,14.33
2022-12-03T19:04:04.447Z,14.05
2022-12-03T19:06:31.368Z,14.05
2022-12-03T19:08:57.930Z,13.27
2022-12-03T19:11:24.737Z,15.13
2022-12-03T19:13:59.150Z,13.83
2022-12-03T19:19:19.874Z,14.63
2022-12-03T19:22:10.854Z,16.90
2022-12-03T19:24:37.254Z,12.77
2022-12-03T19:27:11.003Z,13.13
2022-12-03T19:29:43.122Z,12.57
2022-12-03T19:32:09.837Z,13.82
2022-12-03T19:34:38.046Z,13.63
2022-12-03T19:37:19.822Z,13.70
2022-12-03T19:39:46.725Z,13.53
2022-12-03T19:42:15.899Z,14.65
2022-12-03T19:44:42.276Z,13.73
2022-12-03T19:47:08.930Z,14.00
2022-12-03T19:49:40.379Z,14.80
2022-12-03T19:52:06.698Z,13.83
2022-12-03T19:54:33.020Z,15.15
2022-12-03T19:57:08.743Z,14.23
2022-12-03T19:59:35.418Z,15.15
2022-12-03T20:02:33.612Z,13.40
2022-12-03T20:05:02.515Z,12.33
2022-12-03T20:07:57.362Z,17.45
2022-12-03T20:10:23.802Z,12.90
2022-12-03T20:12:52.948Z,12.75
2022-12-03T20:15:19.365Z,13.27
2022-12-03T20:18:32.534Z,14.93
2022-12-03T20:28:32.794Z,13.23
2022-12-03T20:31:49.363Z,13.80
2022-12-03T20:34:15.799Z,13.77
2022-12-03T20:36:51.346Z,13.02
2022-12-03T20:39:17.754Z,13.63
2022-12-03T20:41:52.998Z,14.48
2022-12-03T20:44:19.399Z,14.45
2022-12-03T20:46:48.259Z,12.97
2022-12-03T20:49:20.951Z,14.35
2022-12-03T20:51:52.569Z,14.90
2022-12-03T20:54:22.123Z,14.32
2022-12-03T20:56:48.733Z,13.68
2022-12-03T20:59:24.674Z,14.20
2022-12-03T21:01:58.965Z,13.52
2022-12-03T21:04:27.998Z,13.70
2022-12-03T21:06:54.310Z,12.85
2022-12-03T21:09:23.610Z,16.15
2022-12-03T21:11:51.364Z,14.00
2022-12-03T21:14:17.780Z,14.23
2022-12-03T21:17:11.637Z,13.73
2022-12-03T21:19:38.281Z,12.88
2022-12-03T21:22:10.808Z,14.27
2022-12-03T21:24:38.830Z,12.70
2022-12-03T21:27:15.699Z,13.43
2022-12-03T21:29:44.791Z,12.48
2022-12-03T21:32:11.685Z,14.15
2022-12-03T21:34:38.063Z,15.00
2022-12-03T21:37:04.611Z,13.17
2022-12-03T21:39:31.157Z,13.43
2022-12-03T21:42:34.686Z,13.13
2022-12-03T21:44:52.374Z,13.07
2022-12-03T21:47:36.366Z,13.20
2022-12-03T21:50:12.480Z,14.10
2022-12-03T21:52:38.838Z,14.73
2022-12-03T21:55:09.591Z,14.60
2022-12-03T21:57:36.442Z,13.65
2022-12-03T22:00:37.246Z,12.38
2022-12-03T22:03:03.808Z,14.00
2022-12-03T22:05:43.419Z,12.65
2022-12-03T22:10:53.424Z,12.98
2022-12-03T22:13:24.116Z,13.88
2022-12-03T22:15:50.516Z,14.27
2022-12-03T22:18:46.925Z,13.82
2022-12-03T22:21:18.538Z,14.38
2022-12-03T22:23:48.596Z,13.95
2022-12-03T22:26:24.737Z,15.20
2022-12-03T22:28:54.054Z,14.90
2022-12-03T22:31:35.661Z,14.68
2022-12-03T22:34:02.395Z,14.00
2022-12-03T22:36:32.175Z,14.65
2022-12-03T22:38:58.580Z,14.48
2022-12-03T22:41:39.879Z,15.27
2022-12-03T22:44:06.226Z,13.88
2022-12-03T22:49:16.012Z,15.82
2022-12-03T22:51:46.087Z,14.98
2022-12-03T22:54:12.653Z,15.27
2022-12-03T22:56:41.903Z,15.30
2022-12-03T22:59:09.678Z,15.38
2022-12-03T23:08:07.590Z,14.93
2022-12-03T23:10:40.088Z,16.75
2022-12-03T23:13:08.138Z,16.05
2022-12-03T23:15:51.895Z,16.10
2022-12-03T23:18:20.284Z,16.35
2022-12-03T23:23:45.307Z,15.63
2022-12-03T23:29:37.486Z,14.57
2022-12-03T23:32:42.435Z,16.27
2022-12-03T23:35:09.211Z,16.20
2022-12-03T23:37:35.624Z,14.98
2022-12-03T23:43:35.275Z,15.27
2022-12-03T23:46:08.228Z,15.57
2022-12-03T23:48:37.811Z,16.67
2022-12-03T23:51:08.932Z,14.85
2022-12-03T23:53:39.923Z,17.40
2022-12-03T23:56:09.646Z,15.75
2022-12-03T23:58:36.488Z,17.45
